createdAt,value
2023-02-25T00:04:48.532Z,75.60
2023-02-25T00:16:49.145Z,74.98
2023-02-25T00:28:49.470Z,80.94
2023-02-25T00:40:49.915Z,79.74
2023-02-25T00:52:50.385Z,76.08
2023-02-25T01:04:50.829Z,80.81
2023-02-25T01:16:51.229Z,80.38
2023-02-25T01:28:51.763Z,82.65
2023-02-25T01:40:52.188Z,80.26
2023-02-25T01:52:52.638Z,76.96
2023-02-25T02:04:53.108Z,77.47
2023-02-25T02:16:53.533Z,79.16
2023-02-25T02:28:53.980Z,84.01
2023-02-25T02:40:54.893Z,83.82
2023-02-25T02:52:54.910Z,81.37
2023-02-25T03:04:55.364Z,80.57
2023-02-25T03:16:55.818Z,80.65
2023-02-25T03:28:56.253Z,84.23
2023-02-25T03:40:56.746Z,81.92
2023-02-25T03:52:57.194Z,79.34
2023-02-25T04:04:57.675Z,82.02
2023-02-25T04:16:58.108Z,84.03
2023-02-25T04:28:58.499Z,83.13
2023-02-25T04:40:58.960Z,79.89
2023-02-25T04:52:59.418Z,69.33
2023-02-25T05:04:59.860Z,64.40
2023-02-25T05:17:00.298Z,65.14
2023-02-25T05:29:00.779Z,72.79
2023-02-25T05:41:01.212Z,79.38
2023-02-25T05:53:01.662Z,79.68
2023-02-25T06:05:02.115Z,82.21
2023-02-25T06:17:02.586Z,66.66
2023-02-25T06:29:03.011Z,55.04
2023-02-25T06:41:03.468Z,68.14
2023-02-25T06:53:03.902Z,51.13
2023-02-25T07:05:04.409Z,60.86
2023-02-25T07:17:04.814Z,64.41
2023-02-25T07:29:05.259Z,66.65
2023-02-25T07:41:05.753Z,67.07
2023-02-25T07:53:06.220Z,68.20
2023-02-25T08:05:06.619Z,51.34
2023-02-25T08:17:07.129Z,47.76
2023-02-25T08:29:07.521Z,46.17
2023-02-25T08:41:07.999Z,43.91
2023-02-25T08:53:08.436Z,44.95
2023-02-25T09:05:08.910Z,44.00
2023-02-25T09:17:09.331Z,37.35
2023-02-25T09:29:09.884Z,37.11
2023-02-25T09:41:10.251Z,36.76
2023-02-25T09:53:10.706Z,34.95
2023-02-25T10:05:11.185Z,33.41
2023-02-25T10:17:11.648Z,34.97
2023-02-25T10:29:12.082Z,32.55
2023-02-25T10:41:12.544Z,32.05
2023-02-25T10:53:12.971Z,31.04
2023-02-25T11:05:13.473Z,34.86
2023-02-25T11:17:13.918Z,33.74
2023-02-25T11:29:14.342Z,31.81
2023-02-25T11:41:14.808Z,32.29
2023-02-25T11:53:15.302Z,32.39
2023-02-25T12:05:15.703Z,32.41
2023-02-25T12:17:16.173Z,31.75
2023-02-25T12:29:16.628Z,30.84
2023-02-25T12:41:17.069Z,31.90
2023-02-25T12:53:17.552Z,32.34
2023-02-25T13:05:17.946Z,34.14
2023-02-25T13:17:18.416Z,34.69
2023-02-25T13:29:18.904Z,34.87
2023-02-25T13:41:19.322Z,35.65
2023-02-25T13:53:19.804Z,36.14
2023-02-25T14:05:22.608Z,36.88
2023-02-25T14:17:20.712Z,36.93
2023-02-25T14:29:21.150Z,37.58
2023-02-25T14:41:21.874Z,36.01
2023-02-25T14:53:22.057Z,36.72
2023-02-25T15:05:22.534Z,35.60
2023-02-25T15:17:22.965Z,36.01
2023-02-25T15:29:23.397Z,35.70
2023-02-25T15:41:24.137Z,35.64
2023-02-25T15:53:24.344Z,36.26
2023-02-25T16:05:24.764Z,37.35
2023-02-25T16:17:25.228Z,38.33
2023-02-25T16:29:25.690Z,39.70
2023-02-25T16:41:33.355Z,40.00
2023-02-25T16:53:26.602Z,42.02
2023-02-25T17:05:26.992Z,44.42
2023-02-25T17:17:27.510Z,43.51
2023-02-25T17:29:27.955Z,45.73
2023-02-25T17:41:28.395Z,46.27
2023-02-25T17:53:28.849Z,48.44
2023-02-25T18:05:29.320Z,49.34
2023-02-25T18:17:29.785Z,49.38
2023-02-25T18:29:30.205Z,48.99
2023-02-25T18:41:30.658Z,53.06
2023-02-25T18:53:31.127Z,51.13
2023-02-25T19:05:31.593Z,54.79
2023-02-25T19:17:32.057Z,54.65
2023-02-25T19:29:32.490Z,54.49
2023-02-25T19:41:32.886Z,50.58
2023-02-25T19:53:33.389Z,51.16
2023-02-25T20:05:33.830Z,57.76
2023-02-25T20:17:34.279Z,65.52
2023-02-25T20:29:34.734Z,69.75
2023-02-25T20:41:35.158Z,73.60
2023-02-25T20:53:35.619Z,77.68
2023-02-25T21:05:36.078Z,85.45
2023-02-25T21:17:36.530Z,89.26
2023-02-25T21:29:37.012Z,85.19
2023-02-25T21:41:37.454Z,83.48
2023-02-25T21:53:37.944Z,81.61
2023-02-25T22:05:38.329Z,82.33
2023-02-25T22:17:38.831Z,80.52
2023-02-25T22:29:39.251Z,81.36
2023-02-25T22:41:39.721Z,85.17
2023-02-25T22:53:40.182Z,84.56
2023-02-25T23:05:40.637Z,83.51
2023-02-25T23:17:41.089Z,83.10
2023-02-25T23:29:41.611Z,84.25
2023-02-25T23:41:41.977Z,82.43
2023-02-25T23:53:42.427Z,79.96
